sensor_id;sensor_type;location;lat;lon;timestamp;pressure;altitude;pressure_sealevel;temperature;humidity
55068;BME280;40965;52.368;9.712;2023-01-28T00:00:19;102165.63;;;0.69;79.13
55068;BME280;40965;52.368;9.712;2023-01-28T00:02:46;102164.03;;;0.71;78.81
55068;BME280;40965;52.368;9.712;2023-01-28T00:05:13;102168.19;;;0.69;78.20
55068;BME280;40965;52.368;9.712;2023-01-28T00:07:40;102163.75;;;0.66;78.92
55068;BME280;40965;52.368;9.712;2023-01-28T00:10:07;102161.97;;;0.65;77.90
55068;BME280;40965;52.368;9.712;2023-01-28T00:12:34;102164.56;;;0.65;78.47
55068;BME280;40965;52.368;9.712;2023-01-28T00:15:01;102167.25;;;0.67;78.26
55068;BME280;40965;52.368;9.712;2023-01-28T00:17:28;102162.88;;;0.65;78.59
55068;BME280;40965;52.368;9.712;2023-01-28T00:19:55;102161.25;;;0.68;78.52
55068;BME280;40965;52.368;9.712;2023-01-28T00:22:21;102159.59;;;0.68;78.50
55068;BME280;40965;52.368;9.712;2023-01-28T00:24:48;102156.19;;;0.69;78.23
55068;BME280;40965;52.368;9.712;2023-01-28T00:27:15;102148.47;;;0.69;79.06
55068;BME280;40965;52.368;9.712;2023-01-28T00:29:43;102151.78;;;0.67;78.14
55068;BME280;40965;52.368;9.712;2023-01-28T00:32:10;102156.13;;;0.68;78.27
55068;BME280;40965;52.368;9.712;2023-01-28T00:34:37;102161.09;;;0.64;77.47
55068;BME280;40965;52.368;9.712;2023-01-28T00:37:04;102168.03;;;0.65;77.87
55068;BME280;40965;52.368;9.712;2023-01-28T00:39:30;102163.69;;;0.64;77.34
55068;BME280;40965;52.368;9.712;2023-01-28T00:41:57;102164.56;;;0.65;76.62
55068;BME280;40965;52.368;9.712;2023-01-28T00:44:25;102155.94;;;0.64;77.30
55068;BME280;40965;52.368;9.712;2023-01-28T00:46:52;102159.41;;;0.65;78.20
55068;BME280;40965;52.368;9.712;2023-01-28T00:49:18;102160.31;;;0.65;77.83
55068;BME280;40965;52.368;9.712;2023-01-28T00:51:45;102161.97;;;0.65;77.51
55068;BME280;40965;52.368;9.712;2023-01-28T00:54:13;102157.72;;;0.65;77.88
55068;BME280;40965;52.368;9.712;2023-01-28T00:56:45;102157.72;;;0.65;77.86
55068;BME280;40965;52.368;9.712;2023-01-28T00:59:17;102157.72;;;0.65;77.75
55068;BME280;40965;52.368;9.712;2023-01-28T01:01:44;102152.50;;;0.64;77.89
55068;BME280;40965;52.368;9.712;2023-01-28T01:04:13;102161.09;;;0.64;77.63
55068;BME280;40965;52.368;9.712;2023-01-28T01:06:50;102155.94;;;0.64;77.00
55068;BME280;40965;52.368;9.712;2023-01-28T01:09:20;102149.91;;;0.64;76.83
55068;BME280;40965;52.368;9.712;2023-01-28T01:11:47;102147.22;;;0.62;76.25
55068;BME280;40965;52.368;9.712;2023-01-28T01:14:14;102156.59;;;0.60;76.75
55068;BME280;40965;52.368;9.712;2023-01-28T01:16:41;102150.53;;;0.60;76.99
55068;BME280;40965;52.368;9.712;2023-01-28T01:19:08;102154.00;;;0.60;76.88
55068;BME280;40965;52.368;9.712;2023-01-28T01:21:36;102155.69;;;0.60;77.03
55068;BME280;40965;52.368;9.712;2023-01-28T01:24:03;102158.25;;;0.60;77.21
55068;BME280;40965;52.368;9.712;2023-01-28T01:26:32;102151.44;;;0.60;76.74
55068;BME280;40965;52.368;9.712;2023-01-28T01:29:00;102151.44;;;0.60;77.51
55068;BME280;40965;52.368;9.712;2023-01-28T01:31:26;102152.31;;;0.61;77.72
55068;BME280;40965;52.368;9.712;2023-01-28T01:33:54;102159.16;;;0.60;77.37
55068;BME280;40965;52.368;9.712;2023-01-28T01:36:21;102154.81;;;0.59;76.88
55068;BME280;40965;52.368;9.712;2023-01-28T01:38:52;102153.09;;;0.60;77.30
55068;BME280;40965;52.368;9.712;2023-01-28T01:41:29;102162.63;;;0.61;77.40
55068;BME280;40965;52.368;9.712;2023-01-28T01:44:00;102163.41;;;0.60;76.71
55068;BME280;40965;52.368;9.712;2023-01-28T01:46:42;102168.47;;;0.58;76.87
55068;BME280;40965;52.368;9.712;2023-01-28T01:49:23;102167.69;;;0.59;77.28
55068;BME280;40965;52.368;9.712;2023-01-28T01:52:09;102164.94;;;0.56;76.03
55068;BME280;40965;52.368;9.712;2023-01-28T01:54:42;102163.97;;;0.54;77.00
55068;BME280;40965;52.368;9.712;2023-01-28T01:57:16;102158.91;;;0.56;77.30
55068;BME280;40965;52.368;9.712;2023-01-28T01:59:48;102166.63;;;0.56;77.18
55068;BME280;40965;52.368;9.712;2023-01-28T02:02:15;102171.78;;;0.56;77.36
55068;BME280;40965;52.368;9.712;2023-01-28T02:04:43;102177.72;;;0.55;76.88
55068;BME280;40965;52.368;9.712;2023-01-28T02:07:14;102175.16;;;0.55;77.67
55068;BME280;40965;52.368;9.712;2023-01-28T02:09:43;102178.56;;;0.54;77.39
55068;BME280;40965;52.368;9.712;2023-01-28T02:12:20;102176.78;;;0.53;77.70
55068;BME280;40965;52.368;9.712;2023-01-28T02:14:59;102180.22;;;0.53;77.75
55068;BME280;40965;52.368;9.712;2023-01-28T02:17:32;102183.72;;;0.54;77.58
55068;BME280;40965;52.368;9.712;2023-01-28T02:20:07;102179.44;;;0.54;77.43
55068;BME280;40965;52.368;9.712;2023-01-28T02:22:47;102188.03;;;0.55;77.76
55068;BME280;40965;52.368;9.712;2023-01-28T02:25:56;102180.13;;;0.52;76.08
55068;BME280;40965;52.368;9.712;2023-01-28T02:31:53;102184.22;;;0.48;76.33
55068;BME280;40965;52.368;9.712;2023-01-28T02:34:42;102186.81;;;0.48;76.57
55068;BME280;40965;52.368;9.712;2023-01-28T02:37:19;102177.41;;;0.48;76.40
55068;BME280;40965;52.368;9.712;2023-01-28T02:39:57;102178.13;;;0.46;76.34
55068;BME280;40965;52.368;9.712;2023-01-28T02:42:33;102183.19;;;0.44;75.51
55068;BME280;40965;52.368;9.712;2023-01-28T02:45:00;102179.53;;;0.41;75.91
55068;BME280;40965;52.368;9.712;2023-01-28T02:47:27;102175.88;;;0.37;75.55
55068;BME280;40965;52.368;9.712;2023-01-28T02:50:13;102169.66;;;0.33;75.50
55068;BME280;40965;52.368;9.712;2023-01-28T02:53:12;102161.06;;;0.33;75.50
55068;BME280;40965;52.368;9.712;2023-01-28T02:56:13;102160.97;;;0.31;75.95
55068;BME280;40965;52.368;9.712;2023-01-28T02:59:01;102162.03;;;0.35;76.69
55068;BME280;40965;52.368;9.712;2023-01-28T03:01:49;102159.38;;;0.33;76.43
55068;BME280;40965;52.368;9.712;2023-01-28T03:04:33;102161.84;;;0.32;75.56
55068;BME280;40965;52.368;9.712;2023-01-28T03:07:06;102165.16;;;0.29;76.26
55068;BME280;40965;52.368;9.712;2023-01-28T03:09:34;102165.94;;;0.28;76.33
55068;BME280;40965;52.368;9.712;2023-01-28T03:12:21;102165.94;;;0.28;76.62
55068;BME280;40965;52.368;9.712;2023-01-28T03:15:27;102171.00;;;0.27;76.81
55068;BME280;40965;52.368;9.712;2023-01-28T03:18:19;102162.50;;;0.28;76.88
55068;BME280;40965;52.368;9.712;2023-01-28T03:21:11;102164.97;;;0.26;76.60
55068;BME280;40965;52.368;9.712;2023-01-28T03:24:03;102158.13;;;0.27;76.49
55068;BME280;40965;52.368;9.712;2023-01-28T03:26:57;102155.47;;;0.25;75.66
55068;BME280;40965;52.368;9.712;2023-01-28T03:29:46;102145.81;;;0.21;75.46
55068;BME280;40965;52.368;9.712;2023-01-28T03:32:32;102149.88;;;0.18;76.14
55068;BME280;40965;52.368;9.712;2023-01-28T03:35:19;102147.94;;;0.13;75.94
55068;BME280;40965;52.368;9.712;2023-01-28T03:38:06;102152.81;;;0.09;76.26
55068;BME280;40965;52.368;9.712;2023-01-28T03:40:56;102151.72;;;0.05;75.70
55068;BME280;40965;52.368;9.712;2023-01-28T03:43:25;102160.28;;;0.04;76.31
55068;BME280;40965;52.368;9.712;2023-01-28T03:45:52;102162.16;;;0.07;76.43
55068;BME280;40965;52.368;9.712;2023-01-28T03:48:21;102168.44;;;0.12;76.59
55068;BME280;40965;52.368;9.712;2023-01-28T03:50:50;102162.59;;;0.14;76.94
55068;BME280;40965;52.368;9.712;2023-01-28T03:53:17;102163.63;;;0.18;76.72
55068;BME280;40965;52.368;9.712;2023-01-28T03:55:48;102170.56;;;0.19;77.44
55068;BME280;40965;52.368;9.712;2023-01-28T03:58:16;102164.69;;;0.22;77.50
55068;BME280;40965;52.368;9.712;2023-01-28T04:00:43;102162.28;;;0.25;77.36
55068;BME280;40965;52.368;9.712;2023-01-28T04:03:14;102165.84;;;0.27;77.68
55068;BME280;40965;52.368;9.712;2023-01-28T04:05:44;102171.09;;;0.28;77.17
55068;BME280;40965;52.368;9.712;2023-01-28T04:08:24;102166.66;;;0.26;77.23
55068;BME280;40965;52.368;9.712;2023-01-28T04:10:51;102177.66;;;0.23;77.01
55068;BME280;40965;52.368;9.712;2023-01-28T04:13:18;102169.78;;;0.20;77.26
55068;BME280;40965;52.368;9.712;2023-01-28T04:15:45;102182.81;;;0.23;77.23
55068;BME280;40965;52.368;9.712;2023-01-28T04:18:12;102181.06;;;0.22;77.16
55068;BME280;40965;52.368;9.712;2023-01-28T04:20:39;102184.50;;;0.23;77.14
55068;BME280;40965;52.368;9.712;2023-01-28T04:23:06;102189.66;;;0.23;77.06
55068;BME280;40965;52.368;9.712;2023-01-28T04:25:33;102191.38;;;0.22;77.14
55068;BME280;40965;52.368;9.712;2023-01-28T04:28:01;102193.94;;;0.22;76.23
55068;BME280;40965;52.368;9.712;2023-01-28T04:30:27;102189.31;;;0.16;76.30
55068;BME280;40965;52.368;9.712;2023-01-28T04:32:54;102199.44;;;0.13;75.83
55068;BME280;40965;52.368;9.712;2023-01-28T04:35:20;102192.34;;;0.09;75.81
55068;BME280;40965;52.368;9.712;2023-01-28T04:37:47;102199.06;;;0.07;76.00
55068;BME280;40965;52.368;9.712;2023-01-28T04:40:13;102199.06;;;0.07;76.38
55068;BME280;40965;52.368;9.712;2023-01-28T04:42:40;102199.84;;;0.06;77.15
55068;BME280;40965;52.368;9.712;2023-01-28T04:45:07;102194.78;;;0.08;76.96
55068;BME280;40965;52.368;9.712;2023-01-28T04:47:34;102192.41;;;0.11;77.41
55068;BME280;40965;52.368;9.712;2023-01-28T04:50:00;102200.06;;;0.09;77.68
55068;BME280;40965;52.368;9.712;2023-01-28T04:52:27;102198.28;;;0.08;77.95
55068;BME280;40965;52.368;9.712;2023-01-28T04:54:54;102194.91;;;0.09;77.96
55068;BME280;40965;52.368;9.712;2023-01-28T04:57:20;102197.72;;;0.14;78.30
55068;BME280;40965;52.368;9.712;2023-01-28T04:59:47;102202.97;;;0.15;78.04
55068;BME280;40965;52.368;9.712;2023-01-28T05:02:13;102206.44;;;0.16;77.38
55068;BME280;40965;52.368;9.712;2023-01-28T05:04:40;102204.50;;;0.12;76.96
55068;BME280;40965;52.368;9.712;2023-01-28T05:07:06;102198.34;;;0.10;77.15
55068;BME280;40965;52.368;9.712;2023-01-28T05:09:33;102201.72;;;0.09;77.68
55068;BME280;40965;52.368;9.712;2023-01-28T05:11:59;102207.06;;;0.12;77.50
55068;BME280;40965;52.368;9.712;2023-01-28T05:14:26;102208.81;;;0.13;77.66
55068;BME280;40965;52.368;9.712;2023-01-28T05:16:52;102202.00;;;0.13;77.64
55068;BME280;40965;52.368;9.712;2023-01-28T05:19:19;102209.81;;;0.15;77.74
55068;BME280;40965;52.368;9.712;2023-01-28T05:21:46;102197.66;;;0.12;77.55
55068;BME280;40965;52.368;9.712;2023-01-28T05:24:13;102191.50;;;0.10;77.21
55068;BME280;40965;52.368;9.712;2023-01-28T05:26:40;102194.09;;;0.10;76.98
55068;BME280;40965;52.368;9.712;2023-01-28T05:29:07;102199.69;;;0.03;76.78
55068;BME280;40965;52.368;9.712;2023-01-28T05:31:33;102202.97;;;0.01;76.84
55068;BME280;40965;52.368;9.712;2023-01-28T05:34:00;102191.69;;;-0.02;76.51
55068;BME280;40965;52.368;9.712;2023-01-28T05:36:26;102181.22;;;-0.05;76.70
55068;BME280;40965;52.368;9.712;2023-01-28T05:38:53;102187.16;;;-0.06;76.92
55068;BME280;40965;52.368;9.712;2023-01-28T05:41:19;102181.22;;;-0.05;77.21
55068;BME280;40965;52.368;9.712;2023-01-28T05:43:46;102186.44;;;-0.03;77.47
55068;BME280;40965;52.368;9.712;2023-01-28T05:46:12;102187.34;;;-0.03;77.27
55068;BME280;40965;52.368;9.712;2023-01-28T05:48:39;102191.69;;;-0.02;77.09
55068;BME280;40965;52.368;9.712;2023-01-28T05:51:05;102191.59;;;-0.03;77.52
55068;BME280;40965;52.368;9.712;2023-01-28T05:53:32;102201.97;;;-0.02;77.75
55068;BME280;40965;52.368;9.712;2023-01-28T05:55:59;102195.16;;;-0.01;77.45
55068;BME280;40965;52.368;9.712;2023-01-28T05:58:25;102200.09;;;-0.04;77.46
55068;BME280;40965;52.368;9.712;2023-01-28T06:00:55;102194.97;;;-0.04;77.12
55068;BME280;40965;52.368;9.712;2023-01-28T06:03:21;102194.78;;;-0.07;76.62
55068;BME280;40965;52.368;9.712;2023-01-28T06:05:48;102193.91;;;-0.08;76.58
55068;BME280;40965;52.368;9.712;2023-01-28T06:08:18;102193.78;;;-0.09;76.35
55068;BME280;40965;52.368;9.712;2023-01-28T06:10:45;102191.22;;;-0.09;77.36
55068;BME280;40965;52.368;9.712;2023-01-28T06:13:12;102194.72;;;-0.09;77.29
55068;BME280;40965;52.368;9.712;2023-01-28T06:15:38;102195.50;;;-0.10;77.80
55068;BME280;40965;52.368;9.712;2023-01-28T06:18:05;102199.78;;;-0.10;76.96
55068;BME280;40965;52.368;9.712;2023-01-28T06:20:31;102199.66;;;-0.12;77.12
55068;BME280;40965;52.368;9.712;2023-01-28T06:22:58;102198.88;;;-0.11;77.32
55068;BME280;40965;52.368;9.712;2023-01-28T06:25:24;102193.72;;;-0.11;77.73
55068;BME280;40965;52.368;9.712;2023-01-28T06:27:50;102192.91;;;-0.10;77.55
55068;BME280;40965;52.368;9.712;2023-01-28T06:30:17;102201.53;;;-0.09;77.26
55068;BME280;40965;52.368;9.712;2023-01-28T06:32:44;102198.88;;;-0.11;77.23
55068;BME280;40965;52.368;9.712;2023-01-28T06:35:10;102209.25;;;-0.09;77.48
55068;BME280;40965;52.368;9.712;2023-01-28T06:37:37;102208.44;;;-0.08;77.51
55068;BME280;40965;52.368;9.712;2023-01-28T06:40:04;102200.72;;;-0.08;77.65
55068;BME280;40965;52.368;9.712;2023-01-28T06:42:31;102194.63;;;-0.10;76.83
55068;BME280;40965;52.368;9.712;2023-01-28T06:44:57;102198.06;;;-0.10;77.75
55068;BME280;40965;52.368;9.712;2023-01-28T06:47:24;102200.66;;;-0.10;77.19
55068;BME280;40965;52.368;9.712;2023-01-28T06:49:50;102210.84;;;-0.11;78.27
55068;BME280;40965;52.368;9.712;2023-01-28T06:52:17;102210.06;;;-0.10;78.07
55068;BME280;40965;52.368;9.712;2023-01-28T06:54:44;102209.16;;;-0.11;78.02
55068;BME280;40965;52.368;9.712;2023-01-28T06:57:10;102201.25;;;-0.14;77.04
55068;BME280;40965;52.368;9.712;2023-01-28T06:59:37;102203.84;;;-0.14;78.03
55068;BME280;40965;52.368;9.712;2023-01-28T07:02:03;102204.72;;;-0.13;78.57
55068;BME280;40965;52.368;9.712;2023-01-28T07:04:30;102207.28;;;-0.13;77.64
55068;BME280;40965;52.368;9.712;2023-01-28T07:06:57;102205.41;;;-0.16;77.33
55068;BME280;40965;52.368;9.712;2023-01-28T07:09:23;102212.97;;;-0.19;76.91
55068;BME280;40965;52.368;9.712;2023-01-28T07:11:50;102209.13;;;-0.26;76.93
55068;BME280;40965;52.368;9.712;2023-01-28T07:14:18;102204.00;;;-0.26;77.21
55068;BME280;40965;52.368;9.712;2023-01-28T07:16:45;102202.28;;;-0.25;77.37
55068;BME280;40965;52.368;9.712;2023-01-28T07:19:12;102202.38;;;-0.24;77.29
55068;BME280;40965;52.368;9.712;2023-01-28T07:21:38;102206.75;;;-0.23;76.94
55068;BME280;40965;52.368;9.712;2023-01-28T07:24:05;102214.53;;;-0.21;76.81
55068;BME280;40965;52.368;9.712;2023-01-28T07:26:32;102214.47;;;-0.23;76.67
55068;BME280;40965;52.368;9.712;2023-01-28T07:28:59;102227.50;;;-0.20;77.46
55068;BME280;40965;52.368;9.712;2023-01-28T07:31:25;102225.13;;;-0.17;76.75
55068;BME280;40965;52.368;9.712;2023-01-28T07:33:52;102212.44;;;-0.13;77.38
55068;BME280;40965;52.368;9.712;2023-01-28T07:36:19;102215.22;;;-0.10;77.04
55068;BME280;40965;52.368;9.712;2023-01-28T07:38:46;102210.78;;;-0.13;76.33
55068;BME280;40965;52.368;9.712;2023-01-28T07:41:12;102214.91;;;-0.15;76.20
55068;BME280;40965;52.368;9.712;2023-01-28T07:43:39;102214.91;;;-0.15;76.66
55068;BME280;40965;52.368;9.712;2023-01-28T07:46:06;102221.06;;;-0.13;76.34
55068;BME280;40965;52.368;9.712;2023-01-28T07:48:32;102221.84;;;-0.14;75.69
55068;BME280;40965;52.368;9.712;2023-01-28T07:51:00;102227.72;;;-0.17;76.14
55068;BME280;40965;52.368;9.712;2023-01-28T07:53:28;102228.66;;;-0.14;76.69
55068;BME280;40965;52.368;9.712;2023-01-28T07:55:59;102230.75;;;-0.09;76.74
55068;BME280;40965;52.368;9.712;2023-01-28T07:58:26;102230.91;;;-0.06;76.54
55068;BME280;40965;52.368;9.712;2023-01-28T08:00:56;102224.97;;;-0.05;74.81
55068;BME280;40965;52.368;9.712;2023-01-28T08:03:23;102228.88;;;-0.11;74.99
55068;BME280;40965;52.368;9.712;2023-01-28T08:05:52;102236.22;;;-0.18;74.26
55068;BME280;40965;52.368;9.712;2023-01-28T08:08:23;102233.34;;;-0.22;74.31
55068;BME280;40965;52.368;9.712;2023-01-28T08:10:50;102234.88;;;-0.26;75.50
55068;BME280;40965;52.368;9.712;2023-01-28T08:13:18;102244.47;;;-0.23;75.07
55068;BME280;40965;52.368;9.712;2023-01-28T08:15:45;102244.56;;;-0.22;74.90
55068;BME280;40965;52.368;9.712;2023-01-28T08:18:14;102243.16;;;-0.17;75.56
55068;BME280;40965;52.368;9.712;2023-01-28T08:20:41;102256.75;;;-0.04;74.82
55068;BME280;40965;52.368;9.712;2023-01-28T08:23:15;102260.50;;;0.01;74.52
55068;BME280;40965;52.368;9.712;2023-01-28T08:25:44;102269.66;;;0.11;74.60
55068;BME280;40965;52.368;9.712;2023-01-28T08:28:11;102268.34;;;0.18;75.20
55068;BME280;40965;52.368;9.712;2023-01-28T08:30:39;102258.41;;;0.24;74.71
55068;BME280;40965;52.368;9.712;2023-01-28T08:33:08;102260.38;;;0.28;74.87
55068;BME280;40965;52.368;9.712;2023-01-28T08:35:36;102269.97;;;0.30;74.59
55068;BME280;40965;52.368;9.712;2023-01-28T08:38:03;102274.41;;;0.33;74.69
55068;BME280;40965;52.368;9.712;2023-01-28T08:40:32;102274.56;;;0.36;73.95
55068;BME280;40965;52.368;9.712;2023-01-28T08:42:59;102273.78;;;0.37;73.28
55068;BME280;40965;52.368;9.712;2023-01-28T08:45:28;102274.66;;;0.38;73.49
55068;BME280;40965;52.368;9.712;2023-01-28T08:48:05;102294.41;;;0.37;73.27
55068;BME280;40965;52.368;9.712;2023-01-28T08:50:34;102285.66;;;0.35;73.41
55068;BME280;40965;52.368;9.712;2023-01-28T08:53:09;102290.31;;;0.41;74.39
55068;BME280;40965;52.368;9.712;2023-01-28T08:55:37;102290.16;;;0.53;73.86
55068;BME280;40965;52.368;9.712;2023-01-28T08:58:06;102290.75;;;0.63;73.14
55068;BME280;40965;52.368;9.712;2023-01-28T09:00:37;102300.00;;;0.75;72.84
55068;BME280;40965;52.368;9.712;2023-01-28T09:03:05;102302.25;;;0.84;72.40
55068;BME280;40965;52.368;9.712;2023-01-28T09:05:33;102299.84;;;0.87;72.19
55068;BME280;40965;52.368;9.712;2023-01-28T09:08:10;102298.13;;;1.02;72.23
55068;BME280;40965;52.368;9.712;2023-01-28T09:10:41;102310.66;;;1.11;70.96
55068;BME280;40965;52.368;9.712;2023-01-28T09:13:13;102315.09;;;1.13;71.76
55068;BME280;40965;52.368;9.712;2023-01-28T09:15:41;102311.06;;;1.19;71.40
55068;BME280;40965;52.368;9.712;2023-01-28T09:18:08;102310.56;;;1.09;70.98
55068;BME280;40965;52.368;9.712;2023-01-28T09:20:36;102328.88;;;0.99;71.47
55068;BME280;40965;52.368;9.712;2023-01-28T09:23:03;102333.63;;;0.91;71.97
55068;BME280;40965;52.368;9.712;2023-01-28T09:25:31;102330.59;;;0.84;72.38
55068;BME280;40965;52.368;9.712;2023-01-28T09:27:58;102336.28;;;0.78;72.84
55068;BME280;40965;52.368;9.712;2023-01-28T09:30:25;102338.69;;;0.75;73.19
55068;BME280;40965;52.368;9.712;2023-01-28T09:32:53;102339.38;;;0.72;72.93
55068;BME280;40965;52.368;9.712;2023-01-28T09:35:22;102347.53;;;0.65;72.85
55068;BME280;40965;52.368;9.712;2023-01-28T09:37:49;102357.69;;;0.62;72.63
55068;BME280;40965;52.368;9.712;2023-01-28T09:40:19;102358.22;;;0.56;73.11
55068;BME280;40965;52.368;9.712;2023-01-28T09:45:56;102349.13;;;0.48;73.13
55068;BME280;40965;52.368;9.712;2023-01-28T09:48:31;102347.34;;;0.47;72.83
55068;BME280;40965;52.368;9.712;2023-01-28T09:51:08;102349.41;;;0.53;73.39
55068;BME280;40965;52.368;9.712;2023-01-28T09:53:41;102359.19;;;0.58;72.91
55068;BME280;40965;52.368;9.712;2023-01-28T09:56:30;102347.47;;;0.63;72.55
55068;BME280;40965;52.368;9.712;2023-01-28T09:59:20;102348.38;;;0.64;72.45
55068;BME280;40965;52.368;9.712;2023-01-28T10:02:00;102361.75;;;0.58;72.73
55068;BME280;40965;52.368;9.712;2023-01-28T10:04:52;102359.09;;;0.57;72.71
55068;BME280;40965;52.368;9.712;2023-01-28T10:08:02;102362.28;;;0.53;72.83
55068;BME280;40965;52.368;9.712;2023-01-28T10:10:41;102355.91;;;0.46;72.60
55068;BME280;40965;52.368;9.712;2023-01-28T10:13:29;102349.66;;;0.42;72.64
55068;BME280;40965;52.368;9.712;2023-01-28T10:16:15;102349.38;;;0.38;72.55
55068;BME280;40965;52.368;9.712;2023-01-28T10:21:30;102343.97;;;0.33;72.52
55068;BME280;40965;52.368;9.712;2023-01-28T10:24:33;102341.63;;;0.38;72.82
55068;BME280;40965;52.368;9.712;2023-01-28T10:27:02;102332.97;;;0.51;71.85
55068;BME280;40965;52.368;9.712;2023-01-28T10:29:45;102344.19;;;0.66;70.90
55068;BME280;40965;52.368;9.712;2023-01-28T10:32:31;102343.56;;;0.85;70.22
55068;BME280;40965;52.368;9.712;2023-01-28T10:34:59;102337.53;;;0.99;69.77
55068;BME280;40965;52.368;9.712;2023-01-28T10:37:28;102326.38;;;1.15;69.43
55068;BME280;40965;52.368;9.712;2023-01-28T10:39:58;102332.41;;;1.31;69.49
55068;BME280;40965;52.368;9.712;2023-01-28T10:42:29;102341.53;;;1.41;67.81
55068;BME280;40965;52.368;9.712;2023-01-28T10:47:57;102344.59;;;1.34;67.96
55068;BME280;40965;52.368;9.712;2023-01-28T10:50:33;102348.16;;;1.36;67.22
55068;BME280;40965;52.368;9.712;2023-01-28T10:53:03;102346.66;;;1.24;66.72
55068;BME280;40965;52.368;9.712;2023-01-28T10:55:56;102344.28;;;1.12;67.31
55068;BME280;40965;52.368;9.712;2023-01-28T10:58:26;102348.63;;;1.13;67.98
55068;BME280;40965;52.368;9.712;2023-01-28T11:00:59;102347.56;;;1.10;67.98
55068;BME280;40965;52.368;9.712;2023-01-28T11:03:27;102343.13;;;0.92;68.45
55068;BME280;40965;52.368;9.712;2023-01-28T11:05:56;102344.72;;;0.90;68.99
55068;BME280;40965;52.368;9.712;2023-01-28T11:08:26;102343.13;;;0.92;69.14
55068;BME280;40965;52.368;9.712;2023-01-28T11:10:55;102339.66;;;0.92;68.69
55068;BME280;40965;52.368;9.712;2023-01-28T11:13:31;102328.72;;;0.96;69.41
55068;BME280;40965;52.368;9.712;2023-01-28T11:16:06;102328.09;;;1.00;69.67
55068;BME280;40965;52.368;9.712;2023-01-28T11:19:02;102331.03;;;1.06;68.64
55068;BME280;40965;52.368;9.712;2023-01-28T11:21:31;102333.53;;;1.05;68.99
55068;BME280;40965;52.368;9.712;2023-01-28T11:24:02;102332.09;;;1.10;68.96
55068;BME280;40965;52.368;9.712;2023-01-28T11:26:36;102331.53;;;1.15;68.69
55068;BME280;40965;52.368;9.712;2023-01-28T11:29:04;102327.38;;;1.18;68.20
55068;BME280;40965;52.368;9.712;2023-01-28T11:31:42;102330.03;;;1.19;69.00
55068;BME280;40965;52.368;9.712;2023-01-28T11:34:15;102324.59;;;1.29;68.20
55068;BME280;40965;52.368;9.712;2023-01-28T11:36:53;102328.94;;;1.30;67.95
55068;BME280;40965;52.368;9.712;2023-01-28T11:39:27;102319.44;;;1.29;67.30
55068;BME280;40965;52.368;9.712;2023-01-28T11:42:12;102320.56;;;1.35;67.01
55068;BME280;40965;52.368;9.712;2023-01-28T11:44:41;102316.28;;;1.35;67.35
55068;BME280;40965;52.368;9.712;2023-01-28T11:51:08;102297.28;;;1.49;67.36
55068;BME280;40965;52.368;9.712;2023-01-28T11:54:00;102290.78;;;1.56;66.53
55068;BME280;40965;52.368;9.712;2023-01-28T11:59:55;102284.75;;;1.89;65.99
55068;BME280;40965;52.368;9.712;2023-01-28T12:02:41;102274.81;;;2.13;65.81
55068;BME280;40965;52.368;9.712;2023-01-28T12:08:26;102282.03;;;2.02;64.79
55068;BME280;40965;52.368;9.712;2023-01-28T12:11:18;102282.66;;;1.81;66.06
55068;BME280;40965;52.368;9.712;2023-01-28T12:15:24;102274.97;;;1.67;66.05
55068;BME280;40965;52.368;9.712;2023-01-28T12:17:55;102272.97;;;1.61;66.02
55068;BME280;40965;52.368;9.712;2023-01-28T12:23:47;102245.34;;;1.12;67.41
55068;BME280;40965;52.368;9.712;2023-01-28T12:26:30;102217.88;;;1.12;67.99
55068;BME280;40965;52.368;9.712;2023-01-28T12:35:06;102182.88;;;1.01;68.80
55068;BME280;40965;52.368;9.712;2023-01-28T12:43:43;102163.81;;;0.82;69.67
55068;BME280;40965;52.368;9.712;2023-01-28T12:46:38;102167.75;;;0.76;69.33
55068;BME280;40965;52.368;9.712;2023-01-28T12:52:11;102147.63;;;0.85;70.55
55068;BME280;40965;52.368;9.712;2023-01-28T12:54:57;102163.53;;;0.93;69.29
55068;BME280;40965;52.368;9.712;2023-01-28T12:57:32;102174.38;;;0.87;69.41
55068;BME280;40965;52.368;9.712;2023-01-28T13:00:24;102188.69;;;0.82;70.10
55068;BME280;40965;52.368;9.712;2023-01-28T13:06:01;102173.63;;;0.73;69.49
55068;BME280;40965;52.368;9.712;2023-01-28T13:08:32;102163.53;;;0.61;70.48
55068;BME280;40965;52.368;9.712;2023-01-28T13:11:01;102157.81;;;0.52;70.82
55068;BME280;40965;52.368;9.712;2023-01-28T13:13:32;102173.03;;;0.47;71.72
55068;BME280;40965;52.368;9.712;2023-01-28T13:16:10;102177.13;;;0.44;72.21
55068;BME280;40965;52.368;9.712;2023-01-28T13:29:32;102207.13;;;-0.17;73.87
55068;BME280;40965;52.368;9.712;2023-01-28T13:32:02;102209.69;;;-0.17;74.00
55068;BME280;40965;52.368;9.712;2023-01-28T13:34:40;102224.94;;;-0.20;74.47
55068;BME280;40965;52.368;9.712;2023-01-28T13:37:20;102217.50;;;-0.15;74.20
55068;BME280;40965;52.368;9.712;2023-01-28T13:40:25;102225.22;;;-0.15;75.00
55068;BME280;40965;52.368;9.712;2023-01-28T13:50:51;102234.00;;;0.17;74.31
55068;BME280;40965;52.368;9.712;2023-01-28T14:01:12;102209.91;;;0.16;73.22
55068;BME280;40965;52.368;9.712;2023-01-28T14:07:14;102201.72;;;0.09;73.25
55068;BME280;40965;52.368;9.712;2023-01-28T14:10:26;102194.16;;;-0.03;73.81
55068;BME280;40965;52.368;9.712;2023-01-28T14:13:11;102184.56;;;-0.06;74.11
55068;BME280;40965;52.368;9.712;2023-01-28T14:16:28;102163.53;;;-0.13;73.89
55068;BME280;40965;52.368;9.712;2023-01-28T14:19:18;102163.16;;;-0.20;74.71
55068;BME280;40965;52.368;9.712;2023-01-28T14:21:52;102160.50;;;-0.21;75.58
55068;BME280;40965;52.368;9.712;2023-01-28T14:24:19;102158.63;;;-0.24;75.27
55068;BME280;40965;52.368;9.712;2023-01-28T14:26:53;102146.59;;;-0.25;75.55
55068;BME280;40965;52.368;9.712;2023-01-28T14:29:58;102155.59;;;-0.31;76.00
55068;BME280;40965;52.368;9.712;2023-01-28T14:32:30;102167.31;;;-0.37;76.54
55068;BME280;40965;52.368;9.712;2023-01-28T14:34:59;102181.00;;;-0.38;76.46
55068;BME280;40965;52.368;9.712;2023-01-28T14:37:32;102191.16;;;-0.39;76.16
55068;BME280;40965;52.368;9.712;2023-01-28T14:40:02;102190.28;;;-0.40;76.70